createdAt,value
2018-08-04T00:00:39.357Z,3.60
2018-08-04T00:03:05.840Z,4.03
2018-08-04T00:05:32.327Z,3.55
2018-08-04T00:07:58.789Z,3.90
2018-08-04T00:10:25.279Z,3.60
2018-08-04T00:12:52.305Z,3.67
2018-08-04T00:15:19.153Z,3.40
2018-08-04T00:17:46.384Z,3.50
2018-08-04T00:20:12.940Z,3.90
2018-08-04T00:22:39.702Z,3.42
2018-08-04T00:25:06.863Z,3.90
2018-08-04T00:27:33.336Z,3.30
2018-08-04T00:29:59.760Z,3.73
2018-08-04T00:32:26.241Z,3.87
2018-08-04T00:34:52.746Z,3.70
2018-08-04T00:37:19.208Z,3.90
2018-08-04T00:39:45.673Z,3.80
2018-08-04T00:42:12.122Z,4.30
2018-08-04T00:44:38.555Z,3.73
2018-08-04T00:47:05.021Z,4.03
2018-08-04T00:49:31.593Z,3.65
2018-08-04T00:51:58.055Z,4.00
2018-08-04T00:54:24.575Z,4.07
2018-08-04T00:56:51.083Z,3.50
2018-08-04T00:59:17.537Z,3.67
2018-08-04T01:01:44.539Z,3.93
2018-08-04T01:04:11.021Z,3.27
2018-08-04T01:06:37.979Z,3.57
2018-08-04T01:09:04.439Z,3.92
2018-08-04T01:11:31.559Z,3.80
2018-08-04T01:13:58.007Z,3.57
2018-08-04T01:16:24.507Z,3.55
2018-08-04T01:18:51.515Z,3.63
2018-08-04T01:21:18.628Z,3.33
2018-08-04T01:23:45.095Z,3.80
2018-08-04T01:26:11.561Z,3.60
2018-08-04T01:28:38.023Z,3.80
2018-08-04T01:31:04.460Z,3.43
2018-08-04T01:33:31.020Z,4.13
2018-08-04T01:35:57.499Z,4.20
2018-08-04T01:38:24.094Z,3.92
2018-08-04T01:40:50.597Z,3.90
2018-08-04T01:43:17.095Z,3.93
2018-08-04T01:45:43.557Z,3.60
2018-08-04T01:48:10.119Z,3.83
2018-08-04T01:50:37.257Z,3.67
2018-08-04T01:53:03.687Z,3.80
2018-08-04T01:55:30.120Z,4.13
2018-08-04T01:57:56.607Z,3.80
2018-08-04T02:00:23.090Z,3.63
2018-08-04T02:02:49.573Z,3.80
2018-08-04T02:05:16.026Z,3.60
2018-08-04T02:07:42.598Z,3.83
2018-08-04T02:10:09.065Z,3.60
2018-08-04T02:12:35.533Z,3.80
2018-08-04T02:15:01.978Z,3.63
2018-08-04T02:17:28.441Z,3.85
2018-08-04T02:20:05.255Z,3.97
2018-08-04T02:22:31.800Z,3.70
2018-08-04T02:24:58.269Z,3.80
2018-08-04T02:27:24.770Z,3.98
2018-08-04T02:29:51.247Z,3.90
2018-08-04T02:32:17.734Z,3.97
2018-08-04T02:34:44.204Z,4.03
2018-08-04T02:37:10.688Z,3.95
2018-08-04T02:39:37.201Z,3.37
2018-08-04T02:42:03.706Z,3.73
2018-08-04T02:44:30.218Z,3.97
2018-08-04T02:46:56.715Z,3.90
2018-08-04T02:49:23.184Z,3.75
2018-08-04T02:51:49.675Z,4.03
2018-08-04T02:54:16.146Z,4.17
2018-08-04T02:56:42.633Z,3.67
2018-08-04T02:59:09.147Z,4.12
2018-08-04T03:01:35.604Z,4.40
2018-08-04T03:04:02.167Z,3.60
2018-08-04T03:06:28.621Z,3.98
2018-08-04T03:09:04.974Z,4.03
2018-08-04T03:11:31.418Z,4.13
2018-08-04T03:13:57.901Z,3.70
2018-08-04T03:16:25.052Z,3.92
2018-08-04T03:18:52.916Z,3.80
2018-08-04T03:21:19.342Z,3.73
2018-08-04T03:23:45.780Z,3.80
2018-08-04T03:26:12.248Z,3.90
2018-08-04T03:28:48.532Z,4.07
2018-08-04T03:31:14.970Z,3.80
2018-08-04T03:33:41.502Z,3.93
2018-08-04T03:36:07.971Z,4.12
2018-08-04T03:38:34.551Z,4.30
2018-08-04T03:41:01.013Z,3.67
2018-08-04T03:43:27.443Z,3.90
2018-08-04T03:45:53.920Z,4.00
2018-08-04T03:48:20.356Z,4.10
2018-08-04T03:50:46.826Z,3.97
2018-08-04T03:53:13.300Z,4.10
2018-08-04T03:55:39.753Z,4.03
2018-08-04T03:58:06.203Z,3.70
2018-08-04T04:00:33.331Z,4.20
2018-08-04T04:02:59.815Z,3.67
2018-08-04T04:05:26.249Z,3.30
2018-08-04T04:07:52.751Z,3.93
2018-08-04T04:10:19.233Z,3.90
2018-08-04T04:12:45.739Z,3.25
2018-08-04T04:15:12.283Z,3.53
2018-08-04T04:17:44.875Z,4.63
2018-08-04T04:20:11.320Z,4.37
2018-08-04T04:22:37.743Z,4.10
2018-08-04T04:25:04.243Z,3.70
2018-08-04T04:27:30.699Z,3.97
2018-08-04T04:29:57.181Z,4.30
2018-08-04T04:32:23.699Z,3.77
2018-08-04T04:34:50.778Z,3.70
2018-08-04T04:37:17.249Z,4.10
2018-08-04T04:39:43.772Z,3.90
2018-08-04T04:42:10.189Z,3.73
2018-08-04T04:44:36.629Z,3.93
2018-08-04T04:47:03.051Z,3.80
2018-08-04T04:49:29.509Z,3.90
2018-08-04T04:51:56.488Z,4.13
2018-08-04T04:54:23.126Z,3.92
2018-08-04T04:56:49.591Z,3.83
2018-08-04T04:59:16.084Z,4.00
2018-08-04T05:01:42.566Z,3.87
2018-08-04T05:04:09.015Z,3.87
2018-08-04T05:06:35.490Z,4.33
2018-08-04T05:09:05.076Z,3.97
2018-08-04T05:11:31.611Z,3.90
2018-08-04T05:13:58.065Z,4.03
2018-08-04T05:16:24.542Z,3.90
2018-08-04T05:18:50.991Z,4.33
2018-08-04T05:21:17.461Z,4.10
2018-08-04T05:23:43.920Z,3.60
2018-08-04T05:26:10.403Z,3.90
2018-08-04T05:28:36.972Z,3.40
2018-08-04T05:31:03.428Z,4.23
2018-08-04T05:33:29.887Z,4.03
2018-08-04T05:35:56.665Z,3.90
2018-08-04T05:38:24.120Z,4.30
2018-08-04T05:40:50.605Z,3.53
2018-08-04T05:43:17.172Z,4.30
2018-08-04T05:45:43.556Z,3.73
2018-08-04T05:48:10.015Z,4.03
2018-08-04T05:50:36.470Z,4.47
2018-08-04T05:53:02.967Z,3.70
2018-08-04T05:55:29.439Z,4.20
2018-08-04T05:57:55.990Z,4.20
2018-08-04T06:00:22.501Z,4.20
2018-08-04T06:02:48.957Z,3.63
2018-08-04T06:05:15.398Z,3.40
2018-08-04T06:07:41.902Z,4.20
2018-08-04T06:10:08.402Z,4.00
2018-08-04T06:12:35.194Z,4.10
2018-08-04T06:15:01.618Z,3.93
2018-08-04T06:17:28.185Z,3.90
2018-08-04T06:19:54.695Z,3.60
2018-08-04T06:22:21.187Z,4.43
2018-08-04T06:24:47.675Z,4.13
2018-08-04T06:27:14.143Z,3.97
2018-08-04T06:29:40.645Z,3.87
2018-08-04T06:32:07.305Z,4.10
2018-08-04T06:34:33.799Z,4.10
2018-08-04T06:37:02.995Z,3.93
2018-08-04T06:39:29.597Z,3.63
2018-08-04T06:41:56.045Z,4.25
2018-08-04T06:44:22.535Z,4.13
2018-08-04T06:46:48.999Z,4.00
2018-08-04T06:49:15.492Z,4.33
2018-08-04T06:51:41.980Z,3.87
2018-08-04T06:54:08.437Z,4.00
2018-08-04T06:56:35.475Z,3.67
2018-08-04T06:59:02.294Z,3.80
2018-08-04T07:01:28.892Z,4.00
2018-08-04T07:03:56.015Z,3.67
2018-08-04T07:06:22.470Z,4.37
2018-08-04T07:08:48.920Z,4.20
2018-08-04T07:11:15.382Z,4.20
2018-08-04T07:13:41.925Z,4.00
2018-08-04T07:16:08.349Z,4.40
2018-08-04T07:18:34.892Z,4.03
2018-08-04T07:21:01.335Z,4.20
2018-08-04T07:23:27.767Z,3.60
2018-08-04T07:25:54.206Z,3.90
2018-08-04T07:28:20.632Z,4.22
2018-08-04T07:30:47.738Z,4.20
2018-08-04T07:33:14.219Z,3.40
2018-08-04T07:35:40.708Z,4.13
2018-08-04T07:38:07.252Z,3.98
2018-08-04T07:40:33.709Z,3.83
2018-08-04T07:43:00.164Z,4.00
2018-08-04T07:45:26.636Z,4.07
2018-08-04T07:47:53.602Z,3.55
2018-08-04T07:50:20.075Z,4.40
2018-08-04T07:52:46.520Z,4.12
2018-08-04T07:55:13.016Z,3.90
2018-08-04T07:57:39.520Z,3.67
2018-08-04T08:00:05.984Z,4.13
2018-08-04T08:02:32.464Z,4.10
2018-08-04T08:04:58.977Z,3.77
2018-08-04T08:07:25.914Z,4.00
2018-08-04T08:09:53.035Z,3.67
2018-08-04T08:12:19.489Z,3.97
2018-08-04T08:14:45.944Z,3.85
2018-08-04T08:17:12.436Z,3.73
2018-08-04T08:19:39.001Z,3.50
2018-08-04T08:22:05.538Z,3.67
2018-08-04T08:24:32.003Z,4.20
2018-08-04T08:26:58.432Z,4.10
2018-08-04T08:29:24.912Z,3.93
2018-08-04T08:31:51.369Z,3.60
2018-08-04T08:34:17.840Z,3.65
2018-08-04T08:36:44.306Z,3.43
2018-08-04T08:39:10.840Z,3.50
2018-08-04T08:41:37.499Z,3.80
2018-08-04T08:44:03.973Z,3.93
2018-08-04T08:46:30.442Z,3.80
2018-08-04T08:48:56.961Z,4.27
2018-08-04T08:51:23.442Z,3.80
2018-08-04T08:53:50.034Z,4.10
2018-08-04T08:56:16.417Z,4.00
2018-08-04T08:58:42.894Z,4.10
2018-08-04T09:01:09.340Z,3.43
2018-08-04T09:03:35.825Z,3.90
2018-08-04T09:06:02.313Z,3.70
2018-08-04T09:08:28.806Z,3.73
2018-08-04T09:10:55.298Z,3.67
2018-08-04T09:13:21.783Z,3.92
2018-08-04T09:15:48.302Z,3.90
2018-08-04T09:18:15.462Z,4.00
2018-08-04T09:20:41.935Z,3.62
2018-08-04T09:23:08.495Z,4.07
2018-08-04T09:25:34.974Z,4.00
2018-08-04T09:28:01.454Z,4.43
2018-08-04T09:30:27.909Z,4.42
2018-08-04T09:32:54.371Z,3.60
2018-08-04T09:35:20.824Z,3.73
2018-08-04T09:37:47.244Z,3.93
2018-08-04T09:40:14.646Z,3.52
2018-08-04T09:42:41.702Z,4.07
2018-08-04T09:45:09.583Z,3.95
2018-08-04T09:47:36.301Z,4.07
2018-08-04T09:50:05.821Z,3.47
2018-08-04T09:52:32.274Z,3.87
2018-08-04T09:54:58.781Z,3.50
2018-08-04T09:57:25.531Z,3.33
2018-08-04T09:59:52.497Z,3.90
2018-08-04T10:02:23.789Z,4.00
2018-08-04T10:04:50.277Z,3.60
2018-08-04T10:07:16.752Z,4.03
2018-08-04T10:09:43.230Z,3.80
2018-08-04T10:12:09.716Z,3.67
2018-08-04T10:14:36.163Z,4.07
2018-08-04T10:17:02.628Z,3.80
2018-08-04T10:19:29.107Z,4.08
2018-08-04T10:21:55.563Z,4.07
2018-08-04T10:24:22.051Z,4.17
2018-08-04T10:26:48.561Z,4.03
2018-08-04T10:29:15.257Z,3.77
2018-08-04T10:31:41.979Z,4.15
2018-08-04T10:34:08.476Z,3.98
2018-08-04T10:36:34.959Z,3.47
2018-08-04T10:39:01.935Z,4.13
2018-08-04T10:41:28.392Z,3.80
2018-08-04T10:43:54.914Z,3.63
2018-08-04T10:46:21.848Z,3.40
2018-08-04T10:48:48.342Z,3.80
2018-08-04T10:51:14.817Z,3.60
2018-08-04T10:53:41.305Z,4.17
2018-08-04T10:56:07.789Z,4.00
2018-08-04T10:58:34.750Z,3.90
2018-08-04T11:01:01.276Z,3.63
2018-08-04T11:03:27.828Z,3.83
2018-08-04T11:05:54.381Z,4.25
2018-08-04T11:08:20.864Z,3.95
2018-08-04T11:10:47.329Z,3.63
2018-08-04T11:13:13.811Z,4.30
2018-08-04T11:15:40.346Z,3.60
2018-08-04T11:18:06.816Z,3.17
2018-08-04T11:20:33.431Z,3.60
2018-08-04T11:23:00.064Z,3.53
2018-08-04T11:25:27.120Z,3.73
2018-08-04T11:27:53.613Z,3.52
2018-08-04T11:30:20.097Z,3.53
2018-08-04T11:32:46.612Z,3.77
2018-08-04T11:35:13.223Z,3.70
2018-08-04T11:37:39.763Z,3.35
2018-08-04T11:40:06.217Z,4.08
2018-08-04T11:42:32.712Z,4.00
2018-08-04T11:44:59.831Z,3.63
2018-08-04T11:47:26.348Z,3.57
2018-08-04T11:52:31.700Z,3.47
2018-08-04T11:54:58.264Z,3.83
2018-08-04T11:57:24.727Z,3.47
2018-08-04T11:59:51.179Z,3.83
2018-08-04T12:02:17.676Z,3.50
2018-08-04T12:04:44.140Z,3.33
2018-08-04T12:07:10.647Z,3.30
2018-08-04T12:09:37.101Z,3.60
2018-08-04T12:12:03.588Z,3.70
2018-08-04T12:14:30.056Z,3.50
2018-08-04T12:16:56.511Z,3.75
2018-08-04T12:19:22.963Z,3.77
2018-08-04T12:21:49.474Z,3.97
2018-08-04T12:24:16.054Z,3.00
2018-08-04T12:26:42.527Z,3.80
2018-08-04T12:29:09.153Z,3.77
2018-08-04T12:31:35.675Z,3.80
2018-08-04T12:34:02.151Z,3.37
2018-08-04T12:36:28.660Z,3.27
2018-08-04T12:38:55.143Z,3.33
2018-08-04T12:41:21.622Z,3.60
2018-08-04T12:43:48.172Z,3.80
2018-08-04T12:46:14.715Z,3.87
2018-08-04T12:48:41.213Z,3.67
2018-08-04T12:51:07.725Z,3.90
2018-08-04T12:53:34.337Z,3.70
2018-08-04T12:56:00.948Z,3.40
2018-08-04T12:58:27.403Z,4.00
2018-08-04T13:00:53.855Z,3.45
2018-08-04T13:03:20.517Z,3.63
2018-08-04T13:05:47.091Z,3.67
2018-08-04T13:08:13.571Z,3.77
2018-08-04T13:10:40.046Z,3.60
2018-08-04T13:13:07.098Z,3.50
2018-08-04T13:15:33.577Z,4.00
2018-08-04T13:18:00.053Z,3.63
2018-08-04T13:20:27.153Z,4.03
2018-08-04T13:22:53.615Z,3.83
2018-08-04T13:25:20.127Z,3.60
2018-08-04T13:27:46.593Z,3.80
2018-08-04T13:30:13.983Z,4.00
2018-08-04T13:32:40.448Z,3.90
2018-08-04T13:35:07.061Z,3.72
2018-08-04T13:37:33.729Z,3.73
2018-08-04T13:40:00.261Z,3.60
2018-08-04T13:42:26.745Z,4.00
2018-08-04T13:44:53.223Z,3.93
2018-08-04T13:47:19.735Z,4.00
2018-08-04T13:49:46.186Z,3.52
2018-08-04T13:52:12.651Z,3.40
2018-08-04T13:54:39.189Z,3.90
2018-08-04T13:57:05.743Z,3.90
2018-08-04T13:59:32.262Z,3.90
2018-08-04T14:01:58.822Z,3.40
2018-08-04T14:04:25.311Z,3.93
2018-08-04T14:06:51.767Z,3.87
2018-08-04T14:09:18.201Z,3.77
2018-08-04T14:11:44.695Z,3.65
2018-08-04T14:14:11.197Z,3.93
2018-08-04T14:16:37.681Z,3.93
2018-08-04T14:19:04.158Z,3.70
2018-08-04T14:21:31.101Z,3.80
2018-08-04T14:23:57.849Z,4.33
2018-08-04T14:26:24.323Z,4.12
2018-08-04T14:31:31.555Z,3.60
2018-08-04T14:33:57.996Z,4.37
2018-08-04T14:36:24.494Z,3.87
2018-08-04T14:38:51.596Z,3.97
2018-08-04T14:41:18.079Z,3.80
2018-08-04T14:43:44.539Z,3.70
2018-08-04T14:46:11.050Z,4.20
2018-08-04T14:48:38.169Z,4.00
2018-08-04T14:51:05.022Z,4.43
2018-08-04T14:53:31.946Z,3.90
2018-08-04T14:55:58.421Z,3.83
2018-08-04T14:58:24.899Z,3.75
2018-08-04T15:00:51.343Z,4.30
2018-08-04T15:03:17.779Z,3.80
2018-08-04T15:05:44.325Z,3.80
2018-08-04T15:08:10.848Z,4.00
2018-08-04T15:10:37.325Z,3.93
2018-08-04T15:13:03.807Z,3.93
2018-08-04T15:15:30.282Z,4.50
2018-08-04T15:17:56.744Z,3.98
2018-08-04T15:20:23.221Z,4.07
2018-08-04T15:22:49.688Z,4.23
2018-08-04T15:25:16.188Z,4.43
2018-08-04T15:27:42.694Z,5.08
2018-08-04T15:30:09.192Z,4.30
2018-08-04T15:32:35.663Z,3.97
2018-08-04T15:35:02.144Z,4.03
2018-08-04T15:37:29.066Z,4.47
2018-08-04T15:39:55.562Z,3.87
2018-08-04T15:42:22.070Z,4.50
2018-08-04T15:44:48.545Z,4.90
2018-08-04T15:47:14.994Z,5.10
2018-08-04T15:49:41.478Z,5.00
2018-08-04T15:52:08.032Z,4.80
2018-08-04T15:54:34.517Z,5.20
2018-08-04T15:57:01.100Z,4.60
2018-08-04T15:59:27.608Z,4.50
2018-08-04T16:01:54.108Z,4.50
2018-08-04T16:04:20.602Z,4.40
2018-08-04T16:06:47.059Z,4.40
2018-08-04T16:09:13.514Z,4.70
2018-08-04T16:11:40.717Z,4.40
2018-08-04T16:14:07.342Z,4.67
2018-08-04T16:16:33.837Z,4.87
2018-08-04T16:19:00.721Z,4.00
2018-08-04T16:21:27.159Z,4.23
2018-08-04T16:23:53.582Z,4.25
2018-08-04T16:26:20.879Z,4.37
2018-08-04T16:28:48.812Z,4.13
2018-08-04T16:31:15.296Z,4.33
2018-08-04T16:33:41.883Z,4.33
2018-08-04T16:36:08.346Z,4.35
2018-08-04T16:38:35.073Z,4.93
2018-08-04T16:41:01.539Z,4.17
2018-08-04T16:43:28.055Z,4.50
2018-08-04T16:45:54.539Z,4.57
2018-08-04T16:48:20.991Z,4.80
2018-08-04T16:50:47.469Z,4.75
2018-08-04T16:53:13.922Z,4.43
2018-08-04T16:55:40.989Z,4.83
2018-08-04T16:58:08.024Z,4.40
2018-08-04T17:00:35.025Z,4.45
2018-08-04T17:03:01.568Z,4.17
2018-08-04T17:05:28.034Z,3.90
2018-08-04T17:07:54.547Z,4.60
2018-08-04T17:10:20.983Z,4.03
2018-08-04T17:12:47.461Z,4.17
2018-08-04T17:15:13.925Z,4.00
2018-08-04T17:17:40.413Z,4.53
2018-08-04T17:20:06.867Z,4.57
2018-08-04T17:22:33.331Z,4.60
2018-08-04T17:24:59.812Z,4.27
2018-08-04T17:27:26.271Z,4.17
2018-08-04T17:29:52.759Z,3.97
2018-08-04T17:32:19.225Z,3.97
2018-08-04T17:34:45.745Z,4.12
2018-08-04T17:37:12.532Z,4.33
2018-08-04T17:39:39.017Z,4.53
2018-08-04T17:42:05.557Z,4.43
2018-08-04T17:44:32.118Z,4.40
2018-08-04T17:46:58.599Z,4.40
2018-08-04T17:49:25.047Z,3.98
2018-08-04T17:51:51.511Z,4.27
2018-08-04T17:54:18.097Z,4.40
2018-08-04T17:56:44.601Z,3.83
2018-08-04T17:59:11.059Z,3.57
2018-08-04T18:01:37.582Z,4.37
2018-08-04T18:04:04.125Z,3.90
2018-08-04T18:06:30.676Z,3.67
2018-08-04T18:08:57.152Z,4.10
2018-08-04T18:11:23.704Z,3.80
2018-08-04T18:13:50.720Z,4.27
2018-08-04T18:16:17.181Z,3.93
2018-08-04T18:18:44.567Z,4.23
2018-08-04T18:21:11.161Z,4.20
2018-08-04T18:23:37.785Z,4.33
2018-08-04T18:26:04.254Z,4.70
2018-08-04T18:28:30.840Z,4.08
2018-08-04T18:30:57.918Z,3.80
2018-08-04T18:33:24.429Z,4.20
2018-08-04T18:35:50.946Z,4.33
2018-08-04T18:38:17.448Z,4.33
2018-08-04T18:40:43.926Z,4.03
2018-08-04T18:43:10.578Z,4.33
2018-08-04T18:45:37.086Z,4.10
2018-08-04T18:48:03.606Z,3.98
2018-08-04T18:50:30.391Z,4.13
2018-08-04T18:52:56.865Z,4.30
2018-08-04T18:55:23.876Z,4.43
2018-08-04T18:57:50.537Z,4.47
2018-08-04T19:00:17.015Z,4.05
2018-08-04T19:02:43.466Z,4.40
2018-08-04T19:05:10.453Z,4.20
2018-08-04T19:07:36.966Z,4.30
2018-08-04T19:10:03.432Z,3.93
2018-08-04T19:12:29.936Z,4.33
2018-08-04T19:14:56.406Z,4.70
2018-08-04T19:17:23.808Z,3.70
2018-08-04T19:19:50.256Z,4.00
2018-08-04T19:22:16.730Z,4.30
2018-08-04T19:24:43.232Z,4.33
2018-08-04T19:27:09.742Z,3.70
2018-08-04T19:29:36.206Z,4.07
2018-08-04T19:32:02.680Z,4.10
2018-08-04T19:34:29.777Z,4.55
2018-08-04T19:36:56.219Z,4.50
2018-08-04T19:39:22.706Z,3.97
2018-08-04T19:41:49.185Z,4.28
2018-08-04T19:44:15.682Z,3.90
2018-08-04T19:46:42.166Z,3.67
2018-08-04T19:49:08.722Z,4.10
2018-08-04T19:51:35.254Z,3.70
2018-08-04T19:54:01.751Z,3.83
2018-08-04T19:56:28.239Z,3.93
2018-08-04T19:58:58.732Z,4.00
2018-08-04T20:01:25.300Z,4.03
2018-08-04T20:03:51.892Z,4.70
2018-08-04T20:06:18.378Z,3.73
2018-08-04T20:08:44.924Z,3.85
2018-08-04T20:11:11.423Z,4.00
2018-08-04T20:13:38.008Z,3.83
2018-08-04T20:16:04.500Z,3.63
2018-08-04T20:18:31.077Z,4.10
2018-08-04T20:20:57.529Z,4.45
2018-08-04T20:23:23.995Z,3.73
2018-08-04T20:25:50.515Z,4.20
2018-08-04T20:28:16.975Z,4.00
2018-08-04T20:30:43.459Z,4.33
2018-08-04T20:33:09.932Z,4.10
2018-08-04T20:35:36.402Z,4.03
2018-08-04T20:38:02.950Z,3.93
2018-08-04T20:40:29.423Z,4.43
2018-08-04T20:42:55.909Z,3.83
2018-08-04T20:45:22.512Z,4.03
2018-08-04T20:47:48.957Z,3.77
2018-08-04T20:50:15.451Z,3.83
2018-08-04T20:52:41.911Z,4.53
2018-08-04T20:55:08.399Z,4.03
2018-08-04T20:57:34.917Z,4.03
2018-08-04T21:00:02.408Z,3.72
2018-08-04T21:02:28.940Z,3.80
2018-08-04T21:04:56.105Z,3.57
2018-08-04T21:07:22.696Z,4.00
2018-08-04T21:09:49.268Z,4.10
2018-08-04T21:12:15.788Z,3.70
2018-08-04T21:14:42.406Z,4.00
2018-08-04T21:17:08.994Z,4.00
2018-08-04T21:19:35.633Z,3.67
2018-08-04T21:22:02.117Z,4.10
2018-08-04T21:24:28.583Z,4.15
2018-08-04T21:26:55.568Z,3.87
2018-08-04T21:29:22.558Z,4.10
2018-08-04T21:31:49.003Z,3.70
2018-08-04T21:34:15.495Z,4.00
2018-08-04T21:36:42.878Z,3.77
2018-08-04T21:39:13.207Z,3.93
2018-08-04T21:41:40.566Z,3.97
2018-08-04T21:44:07.136Z,4.13
2018-08-04T21:46:33.634Z,4.00
2018-08-04T21:49:01.337Z,4.08
2018-08-04T21:51:28.149Z,4.30
2018-08-04T21:53:54.818Z,4.97
2018-08-04T21:56:21.439Z,4.63
2018-08-04T21:58:48.207Z,5.20
2018-08-04T22:01:14.984Z,4.70
2018-08-04T22:03:42.951Z,4.67
2018-08-04T22:06:09.648Z,4.87
2018-08-04T22:08:36.244Z,4.83
2018-08-04T22:11:02.866Z,5.40
2018-08-04T22:13:29.596Z,6.93
2018-08-04T22:15:56.189Z,6.43
2018-08-04T22:18:22.840Z,6.60
2018-08-04T22:20:49.340Z,6.45
2018-08-04T22:23:15.810Z,6.80
2018-08-04T22:25:42.259Z,7.00
2018-08-04T22:28:08.726Z,6.60
2018-08-04T22:30:35.218Z,6.45
2018-08-04T22:33:01.736Z,6.30
2018-08-04T22:35:28.194Z,6.40
2018-08-04T22:37:55.178Z,5.97
2018-08-04T22:40:21.792Z,6.30
2018-08-04T22:42:48.246Z,6.50
2018-08-04T22:45:14.690Z,6.57
2018-08-04T22:47:41.192Z,6.93
2018-08-04T22:50:07.654Z,6.90
2018-08-04T22:52:34.106Z,6.40
2018-08-04T22:55:00.640Z,6.00
2018-08-04T22:57:27.646Z,7.03
2018-08-04T22:59:54.137Z,6.50
2018-08-04T23:02:20.631Z,6.50
2018-08-04T23:04:47.120Z,6.78
2018-08-04T23:07:13.590Z,6.73
2018-08-04T23:09:40.728Z,6.63
2018-08-04T23:12:07.192Z,6.10
2018-08-04T23:14:33.680Z,6.47
2018-08-04T23:17:00.154Z,6.63
2018-08-04T23:19:26.614Z,6.80
2018-08-04T23:21:54.134Z,6.92
2018-08-04T23:24:20.724Z,6.30
2018-08-04T23:26:47.288Z,6.60
2018-08-04T23:29:13.798Z,5.90
2018-08-04T23:31:40.458Z,6.40
2018-08-04T23:34:07.090Z,6.73
2018-08-04T23:36:33.686Z,6.33
2018-08-04T23:39:00.732Z,6.37
2018-08-04T23:41:27.325Z,6.67
2018-08-04T23:43:54.348Z,6.00
2018-08-04T23:46:20.989Z,6.00
2018-08-04T23:48:47.564Z,6.50
2018-08-04T23:51:14.236Z,6.13
2018-08-04T23:53:40.838Z,6.47
2018-08-04T23:56:07.388Z,6.62
2018-08-04T23:58:35.173Z,6.62
